Brockway, PA

10:06 AM EDT on July 25, 2014 (GMT -0400)
Du Bois-Jefferson County (KDUJ) Elev 1818 ft | 41.18 °N, 78.90 °W | Change Station

Current weather conditions updated 10 minutes ago

Clear
Clear
65 °F
Feels Like 65 °F
N
0
Wind Variable Wind from North

Today is forecast to be nearly the same temperature as yesterday.

Today
High -- | Low -- °F
--% Chance of Precip.
Yesterday
High -- | Low -- °F
Precip. -- in
6:04 AM 8:39 PM
Waning Crescent, 2% visible
Pressure 30.09 in
Visibility 10.0 miles
Clouds Clear
Dew Point 46 °F
Humidity 50%
Rainfall 0.00 in
Snow Depth Not available.
UV 6 out of 12
Pollen 4.50 out of 12
Air Quality Not available.
Flu Activity Not available.
METAR KDUJ 251356Z AUTO 00000KT 10SM CLR 18/08 A3011 RMK AO2 SLP189 T01830078

More Conditions Fewer Conditions

Pressure 30.09 in
Visibility 10.0 miles
Clouds Clear
Dew Point 46 °F
Humidity 50%
Rainfall 0.00 in
Snow Depth Not available.
UV 6 out of 12
Pollen 4.50 out of 12
Air Quality Not available.
Flu Activity Not available.
METAR KDUJ 251356Z AUTO 00000KT 10SM CLR 18/08 A3011 RMK AO2 SLP189 T01830078

More Conditions Fewer Conditions

10-Day Weather Forecast

Almanac

Astronomy

Jul. 25, 2014 Rise Set
Actual Time 6:04 AM EDT 8:39 PM EDT
Civil Twilight 5:32 AM EDT 9:10 PM EDT
Nautical Twilight 4:52 AM EDT 9:50 PM EDT
Astronomical Twilight 4:07 AM EDT 10:34 PM EDT
Moon 5:02 AM EDT 7:34 PM EDT
Length of Visible Light 15h 38m
Length of Day
14h 35m
Tomorrow will be 1m 52s shorter.
Waning Crescent, 2% of the Moon is Illuminated
Today
Waning Crescent
Jul 26
New
Aug 3
First Quarter
Aug 10
Full
Aug 17
Last Quarter

Today's Extremes

State Highs State Lows

Community

WunderPhotos

Upload Photos

1,737,338 photos uploaded!

Nearby

Snow Depth

Station Depth Elevation
No new snow has been reported.

Earthquake Activity

City Distance Mag. Time & Date
No recent earthquake activity has been reported nearby.
Minimum magnitude displayed is 2.5.

Coastal Water Temperatures

Place Temperature
No Stations Reporting

Nearby Weather Stations

Station Location Temp. Dew Point Humidity Wind Precip. Elev Updated Type
Holly Terrace, Falls Creek, PA 61.2 °F 55 °F 81% ENE  at  3.0 mph 0.00 in / hr 1473 ft 10:06 AM EDT Rapid Fire
Brookville, PA, Brookville, PA 61.4 °F 49 °F 64% West  at  2.0 mph 0.00 in / hr 1453 ft 10:06 AM EDT Rapid Fire
Valley Overview, Brookville, PA 64.5 °F 51 °F 61% SSW  at  4.0 mph 0.00 in / hr 1608 ft 10:06 AM EDT Rapid Fire
Emerald Estates, Saint Marys, PA 63.3 °F 52 °F 67% North  at  0.0 mph 0.00 in / hr 1870 ft 10:06 AM EDT Rapid Fire
Heathville Road, Summerville, PA 64.4 °F 52 °F 64% South  at  0.7 mph 0.00 in / hr 1217 ft 10:06 AM EDT Rapid Fire
West End, Punxsutawney, PA 63.5 °F 54 °F 72% North  at  0.0 mph 0.00 in / hr 1279 ft 10:06 AM EDT Rapid Fire

Show More Stations Show Fewer Stations